Time,TemperatureF,DewpointF,PressureIn,WindDirection,WindDirectionDegrees,WindSpeedMPH,WindSpeedGustMPH,Humidity,HourlyPrecipIn,Conditions,Clouds,dailyrainin,SoftwareType,DateUTC
2014-01-27 00:00:00,11.1,11.1,30.28,North,359,16.0,25.0,100,0.00,,,0.00,VWS V14.01,2014-01-27 06:00:00,
2014-01-27 00:05:00,11.1,11.1,30.29,North,359,9.0,19.0,100,0.00,,,0.00,VWS V14.01,2014-01-27 06:05:00,
2014-01-27 00:10:00,10.9,10.9,30.29,North,354,13.0,19.0,100,0.00,,,0.00,VWS V14.01,2014-01-27 06:10:00,
2014-01-27 00:15:00,10.7,10.7,30.29,North,354,12.0,19.0,100,0.00,,,0.00,VWS V14.01,2014-01-27 06:15:00,
2014-01-27 00:20:00,10.7,10.7,30.28,North,359,10.0,14.0,100,0.00,,,0.00,VWS V14.01,2014-01-27 06:20:00,
2014-01-27 00:25:00,10.7,10.7,30.28,NNE,18,9.0,14.0,100,0.00,,,0.00,VWS V14.01,2014-01-27 06:25:00,
2014-01-27 00:30:00,10.7,10.7,30.28,NNE,17,11.0,14.0,100,0.00,,,0.00,VWS V14.01,2014-01-27 06:30:00,
2014-01-27 00:35:00,10.5,10.5,30.29,North,356,11.0,19.0,100,0.00,,,0.00,VWS V14.01,2014-01-27 06:35:00,
2014-01-27 00:40:00,10.5,10.5,30.29,North,354,16.0,19.0,100,0.00,,,0.00,VWS V14.01,2014-01-27 06:40:00,
2014-01-27 00:45:00,10.5,10.5,30.29,North,352,19.0,21.0,100,0.00,,,0.00,VWS V14.01,2014-01-27 06:45:00,
2014-01-27 00:50:00,10.5,10.5,30.29,NNE,30,7.0,14.0,100,0.00,,,0.00,VWS V14.01,2014-01-27 06:50:00,
2014-01-27 00:55:00,10.5,10.5,30.29,North,357,8.0,14.0,100,0.00,,,0.00,VWS V14.01,2014-01-27 06:55:00,
2014-01-27 01:00:00,10.4,10.4,30.29,North,356,13.0,16.0,100,0.00,,,0.00,VWS V14.01,2014-01-27 07:00:00,
2014-01-27 01:05:00,10.2,10.2,30.29,North,356,11.0,11.0,100,0.00,,,0.00,VWS V14.01,2014-01-27 07:05:00,
2014-01-27 01:10:00,10.0,10.0,30.29,North,0,10.0,13.0,100,0.00,,,0.00,VWS V14.01,2014-01-27 07:10:00,
2014-01-27 01:15:00,9.9,9.9,30.29,North,0,9.0,13.0,100,0.00,,,0.00,VWS V14.01,2014-01-27 07:15:00,
2014-01-27 01:20:00,9.7,9.7,30.31,North,354,10.0,10.0,100,0.00,,,0.00,VWS V14.01,2014-01-27 07:20:00,
2014-01-27 01:25:00,9.5,9.5,30.31,North,354,5.0,14.0,100,0.00,,,0.00,VWS V14.01,2014-01-27 07:25:00,
2014-01-27 01:30:00,9.3,9.3,30.31,North,359,10.0,14.0,100,0.00,,,0.00,VWS V14.01,2014-01-27 07:30:00,
2014-01-27 01:35:00,9.2,9.2,30.31,North,3,7.0,13.0,100,0.00,,,0.00,VWS V14.01,2014-01-27 07:35:00,
2014-01-27 01:40:00,8.8,8.8,30.31,North,0,11.0,14.0,100,0.00,,,0.00,VWS V14.01,2014-01-27 07:40:00,
2014-01-27 01:45:00,9.2,9.2,30.31,North,354,10.0,17.0,100,0.00,,,0.00,VWS V14.01,2014-01-27 07:45:00,
2014-01-27 01:50:00,9.2,9.2,30.31,North,7,7.0,14.0,100,0.00,,,0.00,VWS V14.01,2014-01-27 07:50:00,
2014-01-27 01:55:00,8.8,8.8,30.31,North,354,7.0,14.0,100,0.00,,,0.00,VWS V14.01,2014-01-27 07:55:00,
2014-01-27 02:00:00,8.8,8.8,30.31,NNW,346,12.0,14.0,100,0.00,,,0.00,VWS V14.01,2014-01-27 08:00:00,
2014-01-27 02:05:00,8.6,8.6,30.32,North,359,10.0,10.0,100,0.00,,,0.00,VWS V14.01,2014-01-27 08:05:00,
2014-01-27 02:10:00,8.6,8.6,30.32,North,352,11.0,12.0,100,0.00,,,0.00,VWS V14.01,2014-01-27 08:10:00,
2014-01-27 02:15:00,8.6,8.6,30.32,North,354,7.0,13.0,100,0.00,,,0.00,VWS V14.01,2014-01-27 08:15:00,
2014-01-27 02:20:00,8.6,8.6,30.32,North,1,10.0,12.0,100,0.00,,,0.00,VWS V14.01,2014-01-27 08:20:00,
2014-01-27 02:25:00,8.3,8.3,30.32,NNE,24,5.0,14.0,100,0.00,,,0.00,VWS V14.01,2014-01-27 08:25:00,
2014-01-27 02:30:00,8.3,8.3,30.32,North,11,9.0,14.0,100,0.00,,,0.00,VWS V14.01,2014-01-27 08:30:00,
2014-01-27 02:35:00,8.1,8.1,30.33,North,359,9.0,11.0,100,0.00,,,0.00,VWS V14.01,2014-01-27 08:35:00,
2014-01-27 02:40:00,8.1,8.1,30.33,North,1,8.0,12.0,100,0.00,,,0.00,VWS V14.01,2014-01-27 08:40:00,
2014-01-27 02:45:00,7.9,7.9,30.33,North,359,9.0,13.0,100,0.00,,,0.00,VWS V14.01,2014-01-27 08:45:00,
2014-01-27 02:50:00,7.9,7.9,30.33,North,359,8.0,11.0,100,0.00,,,0.00,VWS V14.01,2014-01-27 08:50:00,
2014-01-27 02:55:00,7.7,7.7,30.33,North,359,8.0,11.0,100,0.00,,,0.00,VWS V14.01,2014-01-27 08:55:00,
2014-01-27 03:00:00,7.7,7.7,30.33,North,356,7.0,11.0,100,0.00,,,0.00,VWS V14.01,2014-01-27 09:00:00,
2014-01-27 03:05:00,7.7,0.0,30.33,North,354,7.0,10.0,0,0.00,,,0.00,VWS V14.01,2014-01-27 09:05:00,
2014-01-27 03:10:00,7.6,7.6,30.33,North,359,2.0,10.0,100,0.00,,,0.00,VWS V14.01,2014-01-27 09:10:00,
2014-01-27 03:15:00,7.6,0.0,30.33,North,0,7.0,10.0,0,0.00,,,0.00,VWS V14.01,2014-01-27 09:15:00,
2014-01-27 03:20:00,7.6,0.0,30.38,North,3,7.0,8.0,0,0.00,,,0.00,VWS V14.01,2014-01-27 09:20:00,
2014-01-27 03:25:00,7.4,7.4,30.38,North,359,6.0,8.0,100,0.00,,,0.00,VWS V14.01,2014-01-27 09:25:00,
2014-01-27 03:30:00,7.4,7.4,30.38,North,354,7.0,9.0,100,0.00,,,0.00,VWS V14.01,2014-01-27 09:30:00,
2014-01-27 03:35:00,7.4,7.4,30.40,North,349,2.0,7.0,100,0.00,,,0.00,VWS V14.01,2014-01-27 09:35:00,
2014-01-27 03:40:00,7.6,0.0,30.40,North,359,9.0,10.0,0,0.00,,,0.00,VWS V14.01,2014-01-27 09:40:00,
2014-01-27 03:45:00,7.4,7.4,30.40,NNW,343,5.0,10.0,100,0.00,,,0.00,VWS V14.01,2014-01-27 09:45:00,
2014-01-27 03:50:00,7.6,7.6,30.41,North,354,3.0,10.0,100,0.00,,,0.00,VWS V14.01,2014-01-27 09:50:00,
2014-01-27 03:55:00,7.4,7.4,30.41,North,6,5.0,10.0,100,0.00,,,0.00,VWS V14.01,2014-01-27 09:55:00,
2014-01-27 04:00:00,7.4,7.4,30.41,North,354,8.0,10.0,100,0.00,,,0.00,VWS V14.01,2014-01-27 10:00:00,
2014-01-27 04:05:00,7.6,7.6,30.41,North,352,5.0,7.0,100,0.00,,,0.00,VWS V14.01,2014-01-27 10:05:00,
2014-01-27 04:10:00,7.9,7.9,30.41,North,359,7.0,12.0,100,0.00,,,0.00,VWS V14.01,2014-01-27 10:10:00,
2014-01-27 04:15:00,8.1,8.1,30.41,North,359,9.0,12.0,100,0.00,,,0.00,VWS V14.01,2014-01-27 10:15:00,
2014-01-27 04:20:00,8.1,8.1,30.41,North,354,6.0,10.0,100,0.00,,,0.00,VWS V14.01,2014-01-27 10:20:00,
2014-01-27 04:25:00,8.1,8.1,30.41,North,4,5.0,10.0,100,0.00,,,0.00,VWS V14.01,2014-01-27 10:25:00,
2014-01-27 04:30:00,8.1,8.1,30.41,NNW,337,1.0,10.0,100,0.00,,,0.00,VWS V14.01,2014-01-27 10:30:00,
2014-01-27 04:35:00,8.3,8.3,30.42,North,356,6.0,8.0,100,0.00,,,0.00,VWS V14.01,2014-01-27 10:35:00,
2014-01-27 04:40:00,8.3,8.3,30.42,NNW,347,2.0,9.0,100,0.00,,,0.00,VWS V14.01,2014-01-27 10:40:00,
2014-01-27 04:45:00,8.3,8.3,30.42,North,359,2.0,9.0,100,0.00,,,0.00,VWS V14.01,2014-01-27 10:45:00,
2014-01-27 04:50:00,8.3,8.3,30.42,North,359,6.0,8.0,100,0.00,,,0.00,VWS V14.01,2014-01-27 10:50:00,
2014-01-27 04:55:00,8.3,8.3,30.42,North,353,2.0,8.0,100,0.00,,,0.00,VWS V14.01,2014-01-27 10:55:00,
2014-01-27 05:00:00,8.3,8.3,30.42,North,354,1.0,8.0,100,0.00,,,0.00,VWS V14.01,2014-01-27 11:00:00,
2014-01-27 05:05:00,8.3,8.3,30.42,North,356,2.0,5.0,100,0.00,,,0.00,VWS V14.01,2014-01-27 11:05:00,
2014-01-27 05:10:00,8.3,8.3,30.42,North,359,2.0,6.0,100,0.00,,,0.00,VWS V14.01,2014-01-27 11:10:00,
2014-01-27 05:15:00,8.3,8.3,30.42,North,0,3.0,6.0,100,0.00,,,0.00,VWS V14.01,2014-01-27 11:15:00,
2014-01-27 05:20:00,8.3,8.3,30.42,North,359,4.0,5.0,100,0.00,,,0.00,VWS V14.01,2014-01-27 11:20:00,
2014-01-27 05:25:00,8.4,8.4,30.42,NW,325,3.0,5.0,100,0.00,,,0.00,VWS V14.01,2014-01-27 11:25:00,
2014-01-27 05:30:00,8.3,8.3,30.42,North,354,0.0,7.0,100,0.00,,,0.00,VWS V14.01,2014-01-27 11:30:00,
2014-01-27 05:35:00,8.3,8.3,30.42,North,354,3.0,5.0,100,0.00,,,0.00,VWS V14.01,2014-01-27 11:35:00,
2014-01-27 05:40:00,8.4,8.4,30.42,North,4,2.0,5.0,100,0.00,,,0.00,VWS V14.01,2014-01-27 11:40:00,
2014-01-27 05:45:00,8.4,8.4,30.42,North,356,2.0,7.0,100,0.00,,,0.00,VWS V14.01,2014-01-27 11:45:00,
2014-01-27 05:50:00,8.4,0.0,30.42,North,356,7.0,7.0,0,0.00,,,0.00,VWS V14.01,2014-01-27 11:50:00,
2014-01-27 05:55:00,8.4,0.0,30.42,North,354,2.0,7.0,0,0.00,,,0.00,VWS V14.01,2014-01-27 11:55:00,
2014-01-27 06:00:00,8.4,0.0,30.42,North,357,7.0,7.0,0,0.00,,,0.00,VWS V14.01,2014-01-27 12:00:00,
2014-01-27 06:05:00,8.6,0.0,30.42,North,359,5.0,8.0,0,0.00,,,0.00,VWS V14.01,2014-01-27 12:05:00,
2014-01-27 06:10:00,8.6,8.6,30.42,NNW,343,2.0,9.0,100,0.00,,,0.00,VWS V14.01,2014-01-27 12:10:00,
2014-01-27 06:15:00,8.6,8.6,30.42,NNE,16,5.0,9.0,100,0.00,,,0.00,VWS V14.01,2014-01-27 12:15:00,
2014-01-27 06:20:00,8.8,8.8,30.44,NNE,16,7.0,17.0,100,0.00,,,0.00,VWS V14.01,2014-01-27 12:20:00,
2014-01-27 06:25:00,8.8,8.8,30.44,North,354,12.0,17.0,100,0.00,,,0.00,VWS V14.01,2014-01-27 12:25:00,
2014-01-27 06:30:00,8.6,8.6,30.44,North,0,7.0,17.0,100,0.00,,,0.00,VWS V14.01,2014-01-27 12:30:00,
2014-01-27 06:35:00,8.8,8.8,30.45,North,359,5.0,9.0,100,0.00,,,0.00,VWS V14.01,2014-01-27 12:35:00,
2014-01-27 06:40:00,8.6,8.6,30.45,North,353,5.0,9.0,100,0.00,,,0.00,VWS V14.01,2014-01-27 12:40:00,
2014-01-27 06:45:00,8.6,8.6,30.45,NNE,13,5.0,9.0,100,0.00,,,0.00,VWS V14.01,2014-01-27 12:45:00,
2014-01-27 06:50:00,8.6,8.6,30.45,North,353,7.0,8.0,100,0.00,,,0.00,VWS V14.01,2014-01-27 12:50:00,
2014-01-27 06:55:00,8.6,8.6,30.45,North,0,7.0,11.0,100,0.00,,,0.00,VWS V14.01,2014-01-27 12:55:00,
2014-01-27 07:00:00,8.4,8.4,30.45,North,359,10.0,14.0,100,0.00,,,0.00,VWS V14.01,2014-01-27 13:00:00,
2014-01-27 07:05:00,8.4,8.4,30.47,North,353,8.0,10.0,100,0.00,,,0.00,VWS V14.01,2014-01-27 13:05:00,
2014-01-27 07:10:00,8.3,8.3,30.47,North,354,6.0,10.0,100,0.00,,,0.00,VWS V14.01,2014-01-27 13:10:00,
2014-01-27 07:15:00,8.3,0.0,30.47,North,359,10.0,10.0,0,0.00,,,0.00,VWS V14.01,2014-01-27 13:15:00,
2014-01-27 07:20:00,8.3,8.3,30.47,North,0,7.0,10.0,100,0.00,,,0.00,VWS V14.01,2014-01-27 13:20:00,
2014-01-27 07:25:00,8.1,8.1,30.47,North,354,6.0,10.0,100,0.00,,,0.00,VWS V14.01,2014-01-27 13:25:00,
2014-01-27 07:30:00,8.3,8.3,30.47,North,354,7.0,10.0,100,0.00,,,0.00,VWS V14.01,2014-01-27 13:30:00,
2014-01-27 07:35:00,8.1,0.0,30.48,North,352,9.0,9.0,0,0.00,,,0.00,VWS V14.01,2014-01-27 13:35:00,
2014-01-27 07:40:00,7.9,7.9,30.48,North,3,7.0,11.0,100,0.00,,,0.00,VWS V14.01,2014-01-27 13:40:00,
2014-01-27 07:45:00,7.9,0.0,30.48,NNE,23,5.0,11.0,0,0.00,,,0.00,VWS V14.01,2014-01-27 13:45:00,
2014-01-27 07:50:00,7.7,0.0,30.47,North,3,2.0,10.0,0,0.00,,,0.00,VWS V14.01,2014-01-27 13:50:00,
2014-01-27 07:55:00,7.7,0.0,30.47,North,354,7.0,10.0,0,0.00,,,0.00,VWS V14.01,2014-01-27 13:55:00,
2014-01-27 08:00:00,7.9,0.0,30.47,North,359,7.0,10.0,0,0.00,,,0.00,VWS V14.01,2014-01-27 14:00:00,
2014-01-27 08:05:00,7.7,0.0,30.48,North,1,6.0,6.0,0,0.00,,,0.00,VWS V14.01,2014-01-27 14:05:00,
2014-01-27 08:10:00,7.7,0.0,30.48,North,359,5.0,8.0,0,0.00,,,0.00,VWS V14.01,2014-01-27 14:10:00,
2014-01-27 08:15:00,7.4,0.0,30.48,North,359,6.0,8.0,0,0.00,,,0.00,VWS V14.01,2014-01-27 14:15:00,
2014-01-27 08:20:00,7.4,0.0,30.49,NNE,28,2.0,7.0,0,0.00,,,0.00,VWS V14.01,2014-01-27 14:20:00,
2014-01-27 08:25:00,7.4,0.0,30.49,NNE,24,3.0,7.0,0,0.00,,,0.00,VWS V14.01,2014-01-27 14:25:00,
2014-01-27 08:30:00,7.2,0.0,30.49,NNE,31,2.0,10.0,0,0.00,,,0.00,VWS V14.01,2014-01-27 14:30:00,
2014-01-27 08:35:00,7.2,0.0,30.50,North,1,5.0,7.0,0,0.00,,,0.00,VWS V14.01,2014-01-27 14:35:00,
2014-01-27 08:40:00,7.2,0.0,30.50,North,0,6.0,8.0,0,0.00,,,0.00,VWS V14.01,2014-01-27 14:40:00,
2014-01-27 08:45:00,7.4,0.0,30.50,North,0,5.0,8.0,0,0.00,,,0.00,VWS V14.01,2014-01-27 14:45:00,
2014-01-27 08:50:00,7.2,0.0,30.50,NNE,18,4.0,7.0,0,0.00,,,0.00,VWS V14.01,2014-01-27 14:50:00,
2014-01-27 08:55:00,7.0,0.0,30.50,North,359,6.0,7.0,0,0.00,,,0.00,VWS V14.01,2014-01-27 14:55:00,
2014-01-27 09:00:00,7.2,0.0,30.50,North,11,3.0,7.0,0,0.00,,,0.00,VWS V14.01,2014-01-27 15:00:00,
2014-01-27 09:05:00,7.2,0.0,30.51,NNE,24,2.0,6.0,0,0.00,,,0.00,VWS V14.01,2014-01-27 15:05:00,
2014-01-27 09:10:00,7.0,0.0,30.51,NNE,14,2.0,6.0,0,0.00,,,0.00,VWS V14.01,2014-01-27 15:10:00,
2014-01-27 09:15:00,7.2,0.0,30.51,NNE,23,3.0,7.0,0,0.00,,,0.00,VWS V14.01,2014-01-27 15:15:00,
2014-01-27 09:20:00,7.0,0.0,30.51,North,354,6.0,7.0,0,0.00,,,0.00,VWS V14.01,2014-01-27 15:20:00,
2014-01-27 09:25:00,7.2,0.0,30.51,NNE,31,2.0,7.0,0,0.00,,,0.00,VWS V14.01,2014-01-27 15:25:00,
2014-01-27 09:30:00,7.2,0.0,30.51,North,4,2.0,8.0,0,0.00,,,0.00,VWS V14.01,2014-01-27 15:30:00,
2014-01-27 09:35:00,7.4,0.0,30.51,North,0,2.0,5.0,0,0.00,,,0.00,VWS V14.01,2014-01-27 15:35:00,
2014-01-27 09:40:00,7.4,0.0,30.51,ENE,64,5.0,7.0,0,0.00,,,0.00,VWS V14.01,2014-01-27 15:40:00,
2014-01-27 09:45:00,7.6,0.0,30.51,North,3,2.0,7.0,0,0.00,,,0.00,VWS V14.01,2014-01-27 15:45:00,
2014-01-27 09:50:00,7.9,0.0,30.51,North,11,6.0,7.0,0,0.00,,,0.00,VWS V14.01,2014-01-27 15:50:00,
2014-01-27 09:55:00,7.9,0.0,30.51,North,8,6.0,9.0,0,0.00,,,0.00,VWS V14.01,2014-01-27 15:55:00,
2014-01-27 10:00:00,7.7,7.7,30.51,North,0,6.0,9.0,100,0.00,,,0.00,VWS V14.01,2014-01-27 16:00:00,
2014-01-27 10:05:00,7.9,0.0,30.51,NNE,18,2.0,9.0,0,0.00,,,0.00,VWS V14.01,2014-01-27 16:05:00,
2014-01-27 10:10:00,8.3,0.0,30.51,North,4,5.0,9.0,0,0.00,,,0.00,VWS V14.01,2014-01-27 16:10:00,
2014-01-27 10:15:00,8.1,8.1,30.51,NNE,27,2.0,10.0,100,0.00,,,0.00,VWS V14.01,2014-01-27 16:15:00,
2014-01-27 10:20:00,8.3,8.3,30.52,North,3,3.0,7.0,100,0.00,,,0.00,VWS V14.01,2014-01-27 16:20:00,
2014-01-27 10:25:00,8.4,8.4,30.52,North,354,8.0,8.0,100,0.00,,,0.00,VWS V14.01,2014-01-27 16:25:00,
2014-01-27 10:30:00,8.4,8.4,30.52,North,10,5.0,10.0,100,0.00,,,0.00,VWS V14.01,2014-01-27 16:30:00,
2014-01-27 10:35:00,8.8,0.0,30.52,North,359,6.0,7.0,0,0.00,,,0.00,VWS V14.01,2014-01-27 16:35:00,
2014-01-27 10:40:00,8.6,8.6,30.52,North,354,5.0,8.0,100,0.00,,,0.00,VWS V14.01,2014-01-27 16:40:00,
2014-01-27 10:45:00,8.8,8.8,30.52,NNE,31,6.0,10.0,100,0.00,,,0.00,VWS V14.01,2014-01-27 16:45:00,
2014-01-27 10:50:00,9.0,9.0,30.51,NE,37,2.0,7.0,100,0.00,,,0.00,VWS V14.01,2014-01-27 16:50:00,
2014-01-27 10:55:00,9.2,9.2,30.51,North,354,5.0,9.0,100,0.00,,,0.00,VWS V14.01,2014-01-27 16:55:00,
2014-01-27 11:00:00,9.3,9.3,30.51,NNE,17,7.0,12.0,100,0.00,,,0.00,VWS V14.01,2014-01-27 17:00:00,
2014-01-27 11:05:00,9.5,9.5,30.52,NNE,24,3.0,8.0,100,0.00,,,0.00,VWS V14.01,2014-01-27 17:05:00,
2014-01-27 11:10:00,9.2,9.2,30.52,North,352,5.0,11.0,100,0.00,,,0.00,VWS V14.01,2014-01-27 17:10:00,
2014-01-27 11:15:00,9.3,9.3,30.52,NNE,20,6.0,11.0,100,0.00,,,0.00,VWS V14.01,2014-01-27 17:15:00,
2014-01-27 11:20:00,9.5,9.5,30.52,NNE,31,3.0,7.0,100,0.00,,,0.00,VWS V14.01,2014-01-27 17:20:00,
2014-01-27 11:25:00,9.9,9.9,30.52,NNE,24,4.0,8.0,100,0.00,,,0.00,VWS V14.01,2014-01-27 17:25:00,
2014-01-27 11:30:00,9.7,9.7,30.52,North,354,5.0,10.0,100,0.00,,,0.00,VWS V14.01,2014-01-27 17:30:00,
2014-01-27 11:35:00,9.7,9.7,30.52,North,0,7.0,10.0,100,0.00,,,0.00,VWS V14.01,2014-01-27 17:35:00,
2014-01-27 11:40:00,9.9,9.9,30.52,North,354,8.0,11.0,100,0.00,,,0.00,VWS V14.01,2014-01-27 17:40:00,
2014-01-27 11:45:00,9.9,9.9,30.52,NNE,25,5.0,11.0,100,0.00,,,0.00,VWS V14.01,2014-01-27 17:45:00,
2014-01-27 11:50:00,10.0,10.0,30.51,North,349,12.0,12.0,100,0.00,,,0.00,VWS V14.01,2014-01-27 17:50:00,
2014-01-27 11:55:00,9.9,9.9,30.51,North,0,5.0,12.0,100,0.00,,,0.00,VWS V14.01,2014-01-27 17:55:00,
2014-01-27 12:00:00,9.9,9.9,30.51,NE,37,4.0,12.0,100,0.00,,,0.00,VWS V14.01,2014-01-27 18:00:00,
2014-01-27 12:05:00,10.0,10.0,30.50,North,354,6.0,8.0,100,0.00,,,0.00,VWS V14.01,2014-01-27 18:05:00,
2014-01-27 12:10:00,10.4,10.4,30.50,NE,34,5.0,8.0,100,0.00,,,0.00,VWS V14.01,2014-01-27 18:10:00,
2014-01-27 12:15:00,10.0,10.0,30.50,North,352,6.0,10.0,100,0.00,,,0.00,VWS V14.01,2014-01-27 18:15:00,
2014-01-27 12:20:00,10.0,10.0,30.49,North,353,4.0,6.0,100,0.00,,,0.00,VWS V14.01,2014-01-27 18:20:00,
2014-01-27 12:25:00,10.2,10.2,30.49,NNE,18,2.0,7.0,100,0.00,,,0.00,VWS V14.01,2014-01-27 18:25:00,
2014-01-27 12:30:00,10.5,10.5,30.49,NNE,14,2.0,8.0,100,0.00,,,0.00,VWS V14.01,2014-01-27 18:30:00,
2014-01-27 12:35:00,10.7,10.7,30.49,NNE,17,5.0,5.0,100,0.00,,,0.00,VWS V14.01,2014-01-27 18:35:00,
2014-01-27 12:40:00,11.4,11.4,30.49,North,354,7.0,8.0,100,0.00,,,0.00,VWS V14.01,2014-01-27 18:40:00,
2014-01-27 12:45:00,11.4,11.4,30.49,NNE,13,5.0,11.0,100,0.00,,,0.00,VWS V14.01,2014-01-27 18:45:00,
2014-01-27 12:50:00,11.7,11.7,30.47,NNE,27,5.0,10.0,100,0.00,,,0.00,VWS V14.01,2014-01-27 18:50:00,
2014-01-27 12:55:00,12.3,12.3,30.47,NNE,16,7.0,10.0,100,0.00,,,0.00,VWS V14.01,2014-01-27 18:55:00,
2014-01-27 13:00:00,12.4,12.4,30.47,North,359,8.0,12.0,100,0.00,,,0.00,VWS V14.01,2014-01-27 19:00:00,
2014-01-27 13:05:00,12.6,12.6,30.46,North,359,5.0,10.0,100,0.00,,,0.00,VWS V14.01,2014-01-27 19:05:00,
2014-01-27 13:10:00,12.8,12.8,30.46,North,10,6.0,10.0,100,0.00,,,0.00,VWS V14.01,2014-01-27 19:10:00,
2014-01-27 13:15:00,12.9,12.9,30.46,North,359,5.0,12.0,100,0.00,,,0.00,VWS V14.01,2014-01-27 19:15:00,
2014-01-27 13:20:00,13.1,13.1,30.46,North,359,8.0,8.0,100,0.00,,,0.00,VWS V14.01,2014-01-27 19:20:00,
2014-01-27 13:25:00,13.5,13.5,30.46,NE,42,4.0,11.0,100,0.00,,,0.00,VWS V14.01,2014-01-27 19:25:00,
2014-01-27 13:30:00,13.3,13.3,30.46,North,357,5.0,13.0,100,0.00,,,0.00,VWS V14.01,2014-01-27 19:30:00,
2014-01-27 13:35:00,13.5,13.5,30.45,North,1,6.0,10.0,100,0.00,,,0.00,VWS V14.01,2014-01-27 19:35:00,
2014-01-27 13:40:00,13.8,13.8,30.45,NNE,25,3.0,12.0,100,0.00,,,0.00,VWS V14.01,2014-01-27 19:40:00,
2014-01-27 13:45:00,13.6,13.6,30.45,North,1,5.0,12.0,100,0.00,,,0.00,VWS V14.01,2014-01-27 19:45:00,
2014-01-27 13:50:00,14.0,14.0,30.44,North,354,6.0,7.0,100,0.00,,,0.00,VWS V14.01,2014-01-27 19:50:00,
2014-01-27 13:55:00,14.3,14.3,30.44,North,359,4.0,7.0,100,0.00,,,0.00,VWS V14.01,2014-01-27 19:55:00,
2014-01-27 14:00:00,14.3,14.3,30.44,North,8,4.0,7.0,100,0.00,,,0.00,VWS V14.01,2014-01-27 20:00:00,
2014-01-27 14:05:00,14.4,14.4,30.44,North,3,5.0,7.0,100,0.00,,,0.00,VWS V14.01,2014-01-27 20:05:00,
2014-01-27 14:10:00,14.4,14.4,30.44,North,6,7.0,7.0,100,0.00,,,0.00,VWS V14.01,2014-01-27 20:10:00,
2014-01-27 14:11:00,14.6,14.6,30.44,North,0,3.0,7.0,100,0.00,,,0.00,VWS V14.01,2014-01-27 20:11:00,
2014-01-27 14:16:00,14.4,14.4,30.44,North,352,7.0,8.0,100,0.00,,,0.00,VWS V14.01,2014-01-27 20:16:00,
2014-01-27 14:21:00,14.3,14.3,30.43,North,359,7.0,11.0,100,0.00,,,0.00,VWS V14.01,2014-01-27 20:21:00,
2014-01-27 14:26:00,14.1,14.1,30.43,North,359,3.0,11.0,100,0.00,,,0.00,VWS V14.01,2014-01-27 20:26:00,
2014-01-27 14:31:00,14.4,14.4,30.43,NE,41,5.0,11.0,100,0.00,,,0.00,VWS V14.01,2014-01-27 20:31:00,
2014-01-27 14:36:00,14.4,14.4,30.43,NE,47,2.0,7.0,100,0.00,,,0.00,VWS V14.01,2014-01-27 20:36:00,
2014-01-27 14:41:00,14.8,14.8,30.43,NE,45,1.0,7.0,100,0.00,,,0.00,VWS V14.01,2014-01-27 20:41:00,
2014-01-27 14:46:00,14.8,14.8,30.43,NE,40,4.0,7.0,100,0.00,,,0.00,VWS V14.01,2014-01-27 20:46:00,
2014-01-27 14:51:00,14.6,14.6,30.42,NE,47,3.0,7.0,100,0.00,,,0.00,VWS V14.01,2014-01-27 20:51:00,
2014-01-27 14:56:00,14.6,14.6,30.42,North,359,6.0,10.0,100,0.00,,,0.00,VWS V14.01,2014-01-27 20:56:00,
2014-01-27 15:01:00,15.1,15.1,30.42,North,357,0.0,10.0,100,0.00,,,0.00,VWS V14.01,2014-01-27 21:01:00,
2014-01-27 15:06:00,15.9,15.9,30.42,North,357,0.0,2.0,100,0.00,,,0.00,VWS V14.01,2014-01-27 21:06:00,
2014-01-27 15:11:00,15.7,15.7,30.42,NNE,18,5.0,7.0,100,0.00,,,0.00,VWS V14.01,2014-01-27 21:11:00,
2014-01-27 15:16:00,15.6,15.6,30.42,NNE,18,5.0,7.0,100,0.00,,,0.00,VWS V14.01,2014-01-27 21:16:00,
2014-01-27 15:21:00,15.4,15.4,30.41,NNE,18,2.0,5.0,100,0.00,,,0.00,VWS V14.01,2014-01-27 21:21:00,
2014-01-27 15:26:00,15.9,15.9,30.41,NNE,16,0.0,7.0,100,0.00,,,0.00,VWS V14.01,2014-01-27 21:26:00,
2014-01-27 15:31:00,16.5,16.5,30.41,NW,323,3.0,7.0,100,0.00,,,0.00,VWS V14.01,2014-01-27 21:31:00,
2014-01-27 15:36:00,16.9,16.9,30.42,NNW,329,5.0,5.0,100,0.00,,,0.00,VWS V14.01,2014-01-27 21:36:00,
2014-01-27 15:41:00,16.7,16.7,30.42,NNW,329,0.0,5.0,100,0.00,,,0.00,VWS V14.01,2014-01-27 21:41:00,
2014-01-27 15:46:00,16.4,16.4,30.42,NNW,329,0.0,5.0,100,0.00,,,0.00,VWS V14.01,2014-01-27 21:46:00,
2014-01-27 15:51:00,16.5,16.5,30.42,NNW,329,0.0,1.0,100,0.00,,,0.00,VWS V14.01,2014-01-27 21:51:00,
2014-01-27 15:56:00,16.2,16.2,30.42,North,354,5.0,8.0,100,0.00,,,0.00,VWS V14.01,2014-01-27 21:56:00,
2014-01-27 16:01:00,16.2,16.2,30.42,North,0,0.0,8.0,100,0.00,,,0.00,VWS V14.01,2014-01-27 22:01:00,
2014-01-27 16:06:00,16.7,16.7,30.42,NW,306,4.0,4.0,100,0.00,,,0.00,VWS V14.01,2014-01-27 22:06:00,
2014-01-27 16:11:00,16.7,16.7,30.42,WSW,241,2.0,10.0,100,0.00,,,0.00,VWS V14.01,2014-01-27 22:11:00,
2014-01-27 16:16:00,16.7,16.7,30.42,WSW,241,5.0,10.0,100,0.00,,,0.00,VWS V14.01,2014-01-27 22:16:00,
2014-01-27 16:21:00,16.5,16.5,30.42,WSW,240,0.0,7.0,100,0.00,,,0.00,VWS V14.01,2014-01-27 22:21:00,
2014-01-27 16:26:00,16.5,16.5,30.42,WSW,239,5.0,7.0,100,0.00,,,0.00,VWS V14.01,2014-01-27 22:26:00,
2014-01-27 16:31:00,16.5,16.5,30.42,WSW,240,1.0,7.0,100,0.00,,,0.00,VWS V14.01,2014-01-27 22:31:00,
2014-01-27 16:36:00,16.4,16.4,30.42,WSW,244,3.0,5.0,100,0.00,,,0.00,VWS V14.01,2014-01-27 22:36:00,
2014-01-27 16:41:00,16.2,16.2,30.42,WSW,244,0.0,5.0,100,0.00,,,0.00,VWS V14.01,2014-01-27 22:41:00,
2014-01-27 16:46:00,16.2,16.2,30.42,WSW,244,0.0,5.0,100,0.00,,,0.00,VWS V14.01,2014-01-27 22:46:00,
2014-01-27 16:51:00,15.9,15.9,30.42,WSW,244,2.0,3.0,100,0.00,,,0.00,VWS V14.01,2014-01-27 22:51:00,
2014-01-27 16:56:00,15.9,15.9,30.42,WSW,244,0.0,3.0,100,0.00,,,0.00,VWS V14.01,2014-01-27 22:56:00,
2014-01-27 17:01:00,15.9,15.9,30.42,WSW,244,0.0,3.0,100,0.00,,,0.00,VWS V14.01,2014-01-27 23:01:00,
2014-01-27 17:06:00,15.9,15.9,30.42,WSW,244,0.0,0.0,100,0.00,,,0.00,VWS V14.01,2014-01-27 23:06:00,
2014-01-27 17:11:00,15.9,15.9,30.42,WSW,244,0.0,1.0,100,0.00,,,0.00,VWS V14.01,2014-01-27 23:11:00,
2014-01-27 17:16:00,15.9,15.9,30.42,WSW,244,0.0,1.0,100,0.00,,,0.00,VWS V14.01,2014-01-27 23:16:00,
2014-01-27 17:21:00,15.9,15.9,30.41,WSW,244,0.0,0.0,100,0.00,,,0.00,VWS V14.01,2014-01-27 23:21:00,
2014-01-27 17:26:00,15.9,15.9,30.41,WSW,244,0.0,0.0,100,0.00,,,0.00,VWS V14.01,2014-01-27 23:26:00,
2014-01-27 17:31:00,15.7,15.7,30.41,WSW,244,0.0,0.0,100,0.00,,,0.00,VWS V14.01,2014-01-27 23:31:00,
2014-01-27 17:36:00,15.7,15.7,30.42,WSW,244,0.0,0.0,100,0.00,,,0.00,VWS V14.01,2014-01-27 23:36:00,
2014-01-27 17:41:00,15.6,15.6,30.42,WSW,244,0.0,0.0,100,0.00,,,0.00,VWS V14.01,2014-01-27 23:41:00,
2014-01-27 17:46:00,15.4,15.4,30.42,WSW,244,0.0,0.0,100,0.00,,,0.00,VWS V14.01,2014-01-27 23:46:00,
2014-01-27 17:51:00,15.2,15.2,30.43,WSW,244,0.0,0.0,100,0.00,,,0.00,VWS V14.01,2014-01-27 23:51:00,
2014-01-27 17:56:00,14.9,14.9,30.43,WSW,244,0.0,0.0,100,0.00,,,0.00,VWS V14.01,2014-01-27 23:56:00,
2014-01-27 18:01:00,14.8,14.8,30.43,WSW,244,0.0,0.0,100,0.00,,,0.00,VWS V14.01,2014-01-28 00:01:00,
2014-01-27 18:06:00,14.6,14.6,30.43,WSW,244,0.0,0.0,100,0.00,,,0.00,VWS V14.01,2014-01-28 00:06:00,
2014-01-27 18:11:00,14.4,14.4,30.43,WSW,244,0.0,0.0,100,0.00,,,0.00,VWS V14.01,2014-01-28 00:11:00,
2014-01-27 18:16:00,14.3,14.3,30.43,WSW,244,0.0,0.0,100,0.00,,,0.00,VWS V14.01,2014-01-28 00:16:00,
2014-01-27 18:21:00,14.1,14.1,30.43,WSW,244,0.0,0.0,100,0.00,,,0.00,VWS V14.01,2014-01-28 00:21:00,
2014-01-27 18:26:00,14.1,14.1,30.43,WSW,244,0.0,0.0,100,0.00,,,0.00,VWS V14.01,2014-01-28 00:26:00,
2014-01-27 18:31:00,13.8,13.8,30.43,WSW,244,0.0,0.0,100,0.00,,,0.00,VWS V14.01,2014-01-28 00:31:00,
2014-01-27 18:36:00,13.5,13.5,30.43,WSW,244,0.0,0.0,100,0.00,,,0.00,VWS V14.01,2014-01-28 00:36:00,
2014-01-27 18:41:00,13.3,13.3,30.43,WSW,244,0.0,0.0,100,0.00,,,0.00,VWS V14.01,2014-01-28 00:41:00,
2014-01-27 18:46:00,13.3,13.3,30.43,WSW,244,0.0,0.0,100,0.00,,,0.00,VWS V14.01,2014-01-28 00:46:00,
2014-01-27 18:51:00,12.6,12.6,30.44,WSW,244,0.0,0.0,100,0.00,,,0.00,VWS V14.01,2014-01-28 00:51:00,
2014-01-27 18:56:00,12.1,12.1,30.44,WSW,244,0.0,0.0,100,0.00,,,0.00,VWS V14.01,2014-01-28 00:56:00,
2014-01-27 19:01:00,11.4,11.4,30.44,WSW,244,0.0,0.0,100,0.00,,,0.00,VWS V14.01,2014-01-28 01:01:00,
2014-01-27 19:06:00,10.9,10.9,30.44,WSW,244,0.0,0.0,100,0.00,,,0.00,VWS V14.01,2014-01-28 01:06:00,
2014-01-27 19:11:00,10.7,10.7,30.44,WSW,244,1.0,1.0,100,0.00,,,0.00,VWS V14.01,2014-01-28 01:11:00,
2014-01-27 19:16:00,10.5,10.5,30.44,WSW,244,0.0,1.0,100,0.00,,,0.00,VWS V14.01,2014-01-28 01:16:00,
2014-01-27 19:21:00,10.5,10.5,30.45,WSW,244,0.0,2.0,100,0.00,,,0.00,VWS V14.01,2014-01-28 01:21:00,
2014-01-27 19:26:00,10.4,10.4,30.45,WSW,244,0.0,2.0,100,0.00,,,0.00,VWS V14.01,2014-01-28 01:26:00,
2014-01-27 19:31:00,10.0,10.0,30.45,WSW,244,0.0,2.0,100,0.00,,,0.00,VWS V14.01,2014-01-28 01:31:00,
2014-01-27 19:36:00,10.0,10.0,30.44,WSW,244,0.0,0.0,100,0.00,,,0.00,VWS V14.01,2014-01-28 01:36:00,
2014-01-27 19:41:00,10.5,10.5,30.44,WSW,244,0.0,0.0,100,0.00,,,0.00,VWS V14.01,2014-01-28 01:41:00,
2014-01-27 19:46:00,11.1,11.1,30.44,WSW,244,0.0,0.0,100,0.00,,,0.00,VWS V14.01,2014-01-28 01:46:00,
2014-01-27 19:51:00,11.2,11.2,30.45,WSW,244,0.0,0.0,100,0.00,,,0.00,VWS V14.01,2014-01-28 01:51:00,
2014-01-27 19:56:00,10.9,10.9,30.45,SSE,162,1.0,2.0,100,0.00,,,0.00,VWS V14.01,2014-01-28 01:56:00,
2014-01-27 20:01:00,10.4,10.4,30.45,SSE,162,0.0,2.0,100,0.00,,,0.00,VWS V14.01,2014-01-28 02:01:00,
2014-01-27 20:06:00,10.0,10.0,30.45,SSE,162,2.0,2.0,100,0.00,,,0.00,VWS V14.01,2014-01-28 02:06:00,
2014-01-27 20:11:00,9.9,9.9,30.45,SSE,162,0.0,2.0,100,0.00,,,0.00,VWS V14.01,2014-01-28 02:11:00,
2014-01-27 20:16:00,10.2,10.2,30.45,SSE,162,0.0,2.0,100,0.00,,,0.00,VWS V14.01,2014-01-28 02:16:00,
2014-01-27 20:21:00,10.4,10.4,30.46,SSE,158,0.0,3.0,100,0.00,,,0.00,VWS V14.01,2014-01-28 02:21:00,
2014-01-27 20:26:00,10.2,10.2,30.46,SSE,157,4.0,5.0,100,0.00,,,0.00,VWS V14.01,2014-01-28 02:26:00,
2014-01-27 20:31:00,9.3,9.3,30.46,SSE,147,2.0,5.0,100,0.00,,,0.00,VWS V14.01,2014-01-28 02:31:00,
2014-01-27 20:36:00,8.8,8.8,30.44,SE,145,2.0,5.0,100,0.00,,,0.00,VWS V14.01,2014-01-28 02:36:00,
2014-01-27 20:41:00,8.8,8.8,30.44,SE,145,2.0,5.0,100,0.00,,,0.00,VWS V14.01,2014-01-28 02:41:00,
2014-01-27 20:46:00,8.8,8.8,30.44,SE,145,2.0,5.0,100,0.00,,,0.00,VWS V14.01,2014-01-28 02:46:00,
2014-01-27 20:51:00,8.4,8.4,30.45,SE,145,2.0,2.0,100,0.00,,,0.00,VWS V14.01,2014-01-28 02:51:00,
2014-01-27 20:56:00,8.3,8.3,30.45,SE,145,1.0,2.0,100,0.00,,,0.00,VWS V14.01,2014-01-28 02:56:00,
2014-01-27 21:01:00,8.1,8.1,30.45,SE,145,1.0,2.0,100,0.00,,,0.00,VWS V14.01,2014-01-28 03:01:00,
2014-01-27 21:06:00,7.9,7.9,30.46,SE,145,2.0,3.0,100,0.00,,,0.00,VWS V14.01,2014-01-28 03:06:00,
2014-01-27 21:11:00,7.4,7.4,30.46,SE,145,2.0,3.0,100,0.00,,,0.00,VWS V14.01,2014-01-28 03:11:00,
2014-01-27 21:16:00,6.7,6.7,30.46,SE,145,2.0,3.0,100,0.00,,,0.00,VWS V14.01,2014-01-28 03:16:00,
2014-01-27 21:21:00,6.5,6.5,30.46,SE,145,2.0,3.0,100,0.00,,,0.00,VWS V14.01,2014-01-28 03:21:00,
2014-01-27 21:27:00,6.3,6.3,30.46,SE,145,3.0,5.0,100,0.00,,,0.00,VWS V14.01,2014-01-28 03:27:00,
2014-01-27 21:32:00,6.3,6.3,30.46,SE,145,2.0,5.0,100,0.00,,,0.00,VWS V14.01,2014-01-28 03:32:00,
2014-01-27 21:37:00,6.5,6.5,30.46,SE,145,2.0,3.0,100,0.00,,,0.00,VWS V14.01,2014-01-28 03:37:00,
2014-01-27 21:42:00,6.3,6.3,30.46,SE,145,1.0,3.0,100,0.00,,,0.00,VWS V14.01,2014-01-28 03:42:00,
2014-01-27 21:47:00,6.3,6.3,30.46,SE,145,0.0,3.0,100,0.00,,,0.00,VWS V14.01,2014-01-28 03:47:00,
2014-01-27 21:52:00,6.3,6.3,30.46,SE,145,1.0,3.0,100,0.00,,,0.00,VWS V14.01,2014-01-28 03:52:00,
2014-01-27 21:57:00,6.3,6.3,30.46,SE,145,1.0,7.0,100,0.00,,,0.00,VWS V14.01,2014-01-28 03:57:00,
2014-01-27 22:02:00,6.5,6.5,30.46,SE,145,2.0,7.0,100,0.00,,,0.00,VWS V14.01,2014-01-28 04:02:00,
2014-01-27 22:07:00,6.5,6.5,30.46,SE,145,2.0,2.0,100,0.00,,,0.00,VWS V14.01,2014-01-28 04:07:00,
2014-01-27 22:12:00,6.3,6.3,30.46,SE,145,1.0,2.0,100,0.00,,,0.00,VWS V14.01,2014-01-28 04:12:00,
2014-01-27 22:17:00,6.1,6.1,30.46,SE,145,0.0,2.0,100,0.00,,,0.00,VWS V14.01,2014-01-28 04:17:00,
2014-01-27 22:22:00,6.1,6.1,30.46,SE,145,1.0,2.0,100,0.00,,,0.00,VWS V14.01,2014-01-28 04:22:00,
2014-01-27 22:27:00,6.1,6.1,30.46,SE,145,2.0,2.0,100,0.00,,,0.00,VWS V14.01,2014-01-28 04:27:00,
2014-01-27 22:32:00,6.3,6.3,30.46,SE,145,3.0,3.0,100,0.00,,,0.00,VWS V14.01,2014-01-28 04:32:00,
2014-01-27 22:37:00,6.3,6.3,30.46,SE,145,2.0,3.0,100,0.00,,,0.00,VWS V14.01,2014-01-28 04:37:00,
2014-01-27 22:42:00,6.3,6.3,30.46,SE,145,1.0,3.0,100,0.00,,,0.00,VWS V14.01,2014-01-28 04:42:00,
2014-01-27 22:47:00,6.1,6.1,30.46,SE,145,1.0,3.0,100,0.00,,,0.00,VWS V14.01,2014-01-28 04:47:00,
2014-01-27 22:52:00,6.1,6.1,30.46,SE,145,1.0,2.0,100,0.00,,,0.00,VWS V14.01,2014-01-28 04:52:00,
2014-01-27 22:57:00,6.1,6.1,30.46,SE,145,0.0,2.0,100,0.00,,,0.00,VWS V14.01,2014-01-28 04:57:00,
2014-01-27 23:01:00,6.1,6.1,30.46,SE,145,1.0,2.0,100,0.00,,,0.00,VWS V14.01,2014-01-28 05:01:00,
2014-01-27 23:02:00,6.1,6.1,30.45,SE,145,0.0,2.0,100,0.00,,,0.00,VWS V14.01,2014-01-28 05:02:00,
2014-01-27 23:07:00,6.3,6.3,30.45,SE,145,2.0,2.0,100,0.00,,,0.00,VWS V14.01,2014-01-28 05:07:00,
2014-01-27 23:12:00,6.1,6.1,30.45,SSE,147,1.0,2.0,100,0.00,,,0.00,VWS V14.01,2014-01-28 05:12:00,
2014-01-27 23:17:00,6.0,6.0,30.45,SSE,147,0.0,2.0,100,0.00,,,0.00,VWS V14.01,2014-01-28 05:17:00,
2014-01-27 23:22:00,6.0,6.0,30.45,SSE,147,1.0,3.0,100,0.00,,,0.00,VWS V14.01,2014-01-28 05:22:00,
2014-01-27 23:27:00,5.8,5.8,30.45,SSE,147,2.0,3.0,100,0.00,,,0.00,VWS V14.01,2014-01-28 05:27:00,
2014-01-27 23:34:00,5.8,5.8,30.45,SSE,147,0.0,0.0,100,0.00,,,0.00,VWS V14.01,2014-01-28 05:34:00,
2014-01-27 23:40:00,5.6,5.6,30.45,SSE,147,1.0,5.0,100,0.00,,,0.00,VWS V14.01,2014-01-28 05:40:00,
2014-01-27 23:45:00,5.4,5.4,30.45,SSE,148,1.0,5.0,100,0.00,,,0.00,VWS V14.01,2014-01-28 05:45:00,
2014-01-27 23:50:00,5.2,5.2,30.45,SSE,148,2.0,2.0,100,0.00,,,0.00,VWS V14.01,2014-01-28 05:50:00,
2014-01-27 23:55:00,5.2,5.2,30.45,SSE,152,1.0,5.0,100,0.00,,,0.00,VWS V14.01,2014-01-28 05:55:00,